map of KUDG home
Great Circle Mapper logo
KUDG - Airport
Location
City:  Darlington, South Carolina, United States
Name:Darlington County Jetport Airport
ICAO:KUDG
FAA:UDG

Details
Type:Airport (Airfield)
Use:Public/Civil
Latitude:3426'58"N (34.449384)
Longitude:7953'24"W (-79.890060)
Datum:WGS 1984
Elevation:192 ft (59 m)
Runways:1
Longest:5500 × 100 ft (1676 × 30.5 m), paved

Time
Time Zone:UTC-5 (DST-4)
Local Time:

Weather
METAR:KUDG 230655Z AUTO 25006KT 10SM CLR 17/14 A2974 RMK AO1

Related Locations
Nearby:
Farthest:MGV: 11586 mi / 18645 km
Margaret River, WA, AU

Find:

   beyond  
but within

Other Information
Maps:
NOTAMs:
Links:
Sources:

  
flag of United States
flag of South Carolina
  

Sectional Chart

Flight Planning
at skyvector.com

Satellite Image

Google Maps Satellite View

 

Copyright © 2004-2014 Karl L. Swartz. All rights reserved.
The Great Circle Mapper name and logo are trademarks of the Great Circle Mapper.
All other trademarks mentioned herein belong to their respective owners.
Please see credits for attibutions and further copyright information.

  Follow gcmap on Facebook Follow gcmap on Twitter

hCard Microformat

Geo Microformat